createdAt,value
2018-11-06T00:00:31.561Z,96679.83
2018-11-06T00:02:10.046Z,96682.98
2018-11-06T00:03:52.787Z,96679.92
2018-11-06T00:05:33.122Z,96674.47
2018-11-06T00:07:12.581Z,96678.13
2018-11-06T00:08:50.645Z,96681.72
2018-11-06T00:10:27.997Z,96683.03
2018-11-06T00:12:10.094Z,96685.13
2018-11-06T00:13:46.822Z,96687.22
2018-11-06T00:15:27.198Z,96689.01
2018-11-06T00:17:07.830Z,96683.98
2018-11-06T00:18:43.218Z,96684.58
2018-11-06T00:20:19.065Z,96687.83
2018-11-06T00:21:59.331Z,96695.45
2018-11-06T00:23:35.395Z,96694.95
2018-11-06T00:25:12.836Z,96695.71
2018-11-06T00:26:52.402Z,96687.75
2018-11-06T00:28:41.097Z,96685.03
2018-11-06T00:30:16.446Z,96680.09
2018-11-06T00:31:54.047Z,96681.11
2018-11-06T00:33:33.188Z,96672.00
2018-11-06T00:35:11.552Z,96665.29
2018-11-06T00:36:47.072Z,96664.86
2018-11-06T00:38:22.551Z,96666.90
2018-11-06T00:40:01.101Z,96664.44
2018-11-06T00:41:39.127Z,96654.99
2018-11-06T00:43:14.462Z,96645.84
2018-11-06T00:44:51.248Z,96616.48
2018-11-06T00:46:27.135Z,96571.94
2018-11-06T00:48:02.696Z,96563.39
2018-11-06T00:49:42.205Z,96557.45
2018-11-06T00:51:26.198Z,96548.17
2018-11-06T00:53:02.206Z,96542.56
2018-11-06T00:54:37.546Z,96547.67
2018-11-06T00:56:17.262Z,96542.52
2018-11-06T00:57:55.624Z,96545.34
2018-11-06T00:59:31.461Z,96543.74
2018-11-06T01:01:07.117Z,96539.33
2018-11-06T01:02:43.534Z,96536.47
2018-11-06T01:04:22.993Z,96538.69
2018-11-06T01:05:58.162Z,96524.33
2018-11-06T01:07:35.289Z,96514.66
2018-11-06T01:09:13.402Z,96519.44
2018-11-06T01:10:48.837Z,96517.95
2018-11-06T01:12:25.813Z,96504.70
2018-11-06T01:14:02.472Z,96486.86
2018-11-06T01:15:37.708Z,96467.48
2018-11-06T01:17:16.177Z,96486.26
2018-11-06T01:18:52.715Z,96482.56
2018-11-06T01:20:29.469Z,96480.14
2018-11-06T01:22:04.841Z,96482.39
2018-11-06T01:23:39.858Z,96483.62
2018-11-06T01:25:15.490Z,96485.59
2018-11-06T01:26:52.586Z,96485.33
2018-11-06T01:28:28.066Z,96491.48
2018-11-06T01:30:05.858Z,96496.33
2018-11-06T01:31:58.554Z,96502.20
2018-11-06T01:33:58.660Z,96502.03
2018-11-06T01:35:38.038Z,96509.77
2018-11-06T01:37:19.117Z,96504.58
2018-11-06T01:38:58.231Z,96503.98
2018-11-06T01:40:46.112Z,96502.72
2018-11-06T01:42:30.476Z,96493.20
2018-11-06T01:45:09.617Z,96485.47
2018-11-06T01:46:45.183Z,96476.06
2018-11-06T01:48:21.071Z,96475.80
2018-11-06T01:49:56.708Z,96476.14
2018-11-06T01:51:32.021Z,96472.87
2018-11-06T01:53:10.116Z,96473.22
2018-11-06T01:54:45.578Z,96469.83
2018-11-06T01:56:22.086Z,96471.05
2018-11-06T01:57:57.215Z,96463.67
2018-11-06T01:59:32.549Z,96471.33
2018-11-06T02:01:15.595Z,96470.94
2018-11-06T02:02:52.276Z,96475.35
2018-11-06T02:04:38.969Z,96470.52
2018-11-06T02:06:14.372Z,96472.63
2018-11-06T02:07:50.485Z,96473.23
2018-11-06T02:09:32.639Z,96473.27
2018-11-06T02:11:07.917Z,96479.81
2018-11-06T02:12:44.609Z,96484.45
2018-11-06T02:14:21.258Z,96479.18
2018-11-06T02:15:56.219Z,96473.23
2018-11-06T02:19:16.347Z,96464.73
2018-11-06T02:20:52.937Z,96458.98
2018-11-06T02:22:29.349Z,96459.73
2018-11-06T02:24:05.440Z,96457.22
2018-11-06T02:25:40.462Z,96460.60
2018-11-06T02:27:16.747Z,96452.94
2018-11-06T02:28:54.680Z,96457.06
2018-11-06T02:30:30.674Z,96449.30
2018-11-06T02:32:07.458Z,96457.47
2018-11-06T02:33:53.025Z,96452.02
2018-11-06T02:35:33.291Z,96439.08
2018-11-06T02:37:16.726Z,96441.96
2018-11-06T02:38:51.812Z,96433.80
2018-11-06T02:40:28.140Z,96428.23
2018-11-06T02:42:03.599Z,96424.47
2018-11-06T02:43:40.900Z,96424.89
2018-11-06T02:45:17.181Z,96424.09
2018-11-06T02:46:52.689Z,96422.72
2018-11-06T02:48:28.562Z,96431.41
2018-11-06T02:50:06.188Z,96427.55
2018-11-06T02:51:41.660Z,96426.16
2018-11-06T02:53:22.585Z,96425.23
2018-11-06T02:54:58.581Z,96423.70
2018-11-06T02:56:38.788Z,96421.36
2018-11-06T02:58:14.474Z,96415.59
2018-11-06T02:59:52.268Z,96405.58
2018-11-06T03:01:30.864Z,96396.48
2018-11-06T03:03:09.734Z,96395.35
2018-11-06T03:04:49.050Z,96396.41
2018-11-06T03:06:24.531Z,96392.93
2018-11-06T03:07:59.910Z,96398.86
2018-11-06T03:09:36.572Z,96400.02
2018-11-06T03:11:12.976Z,96401.23
2018-11-06T03:12:49.025Z,96395.55
2018-11-06T03:14:24.200Z,96393.09
2018-11-06T03:16:00.159Z,96389.61
2018-11-06T03:17:39.192Z,96395.08
2018-11-06T03:19:16.367Z,96394.91
2018-11-06T03:20:54.347Z,96401.87
2018-11-06T03:22:30.281Z,96402.89
2018-11-06T03:24:07.730Z,96407.41
2018-11-06T03:25:43.540Z,96406.38
2018-11-06T03:27:21.195Z,96414.44
2018-11-06T03:28:56.215Z,96413.22
2018-11-06T03:30:33.576Z,96415.84
2018-11-06T03:32:12.001Z,96410.27
2018-11-06T03:33:47.589Z,96410.50
2018-11-06T03:35:25.336Z,96417.97
2018-11-06T03:37:01.987Z,96415.25
2018-11-06T03:38:39.249Z,96417.42
2018-11-06T03:40:15.576Z,96413.01
2018-11-06T03:41:50.835Z,96408.20
2018-11-06T03:43:26.026Z,96404.68
2018-11-06T03:45:02.710Z,96399.91
2018-11-06T03:46:38.610Z,96403.61
2018-11-06T03:48:14.073Z,96406.25
2018-11-06T03:49:49.473Z,96398.27
2018-11-06T03:51:32.327Z,96397.16
2018-11-06T03:53:20.018Z,96396.41
2018-11-06T03:54:55.196Z,96397.93
2018-11-06T03:56:32.828Z,96386.48
2018-11-06T03:58:09.759Z,96384.77
2018-11-06T03:59:45.252Z,96378.45
2018-11-06T04:01:20.991Z,96378.45
2018-11-06T04:02:55.959Z,96369.20
2018-11-06T04:04:31.146Z,96367.63
2018-11-06T04:06:06.486Z,96358.04
2018-11-06T04:07:41.646Z,96360.28
2018-11-06T04:09:16.592Z,96360.59
2018-11-06T04:10:52.144Z,96352.17
2018-11-06T04:12:27.419Z,96348.95
2018-11-06T04:14:02.609Z,96342.92
2018-11-06T04:15:39.929Z,96337.77
2018-11-06T04:17:18.207Z,96342.28
2018-11-06T04:18:54.819Z,96346.02
2018-11-06T04:20:30.618Z,96351.29
2018-11-06T04:22:06.024Z,96337.96
2018-11-06T04:23:41.927Z,96337.20
2018-11-06T04:25:17.077Z,96336.10
2018-11-06T04:26:52.244Z,96339.58
2018-11-06T04:28:27.494Z,96329.60
2018-11-06T04:30:03.823Z,96328.78
2018-11-06T04:31:40.460Z,96318.76
2018-11-06T04:33:15.459Z,96315.91
2018-11-06T04:34:50.684Z,96305.63
2018-11-06T04:36:25.848Z,96300.17
2018-11-06T04:38:01.086Z,96298.98
2018-11-06T04:39:36.102Z,96298.02
2018-11-06T04:41:11.807Z,96300.61
2018-11-06T04:42:47.024Z,96291.82
2018-11-06T04:44:22.524Z,96288.38
2018-11-06T04:45:58.351Z,96288.78
2018-11-06T04:47:35.596Z,96287.80
2018-11-06T04:49:10.935Z,96288.98
2018-11-06T04:50:46.318Z,96282.19
2018-11-06T04:52:21.356Z,96285.23
2018-11-06T04:53:59.687Z,96288.39
2018-11-06T04:55:35.050Z,96279.63
2018-11-06T04:57:11.135Z,96277.05
2018-11-06T04:58:47.598Z,96270.19
2018-11-06T05:00:22.802Z,96267.13
2018-11-06T05:01:58.255Z,96265.45
2018-11-06T05:03:33.816Z,96263.62
2018-11-06T05:05:10.648Z,96252.68
2018-11-06T05:06:46.127Z,96252.34
2018-11-06T05:08:21.262Z,96259.58
2018-11-06T05:09:57.324Z,96257.29
2018-11-06T05:11:32.704Z,96268.76
2018-11-06T05:13:11.342Z,96267.09
2018-11-06T05:14:47.048Z,96269.09
2018-11-06T05:16:22.683Z,96265.61
2018-11-06T05:17:58.225Z,96268.83
2018-11-06T05:19:33.686Z,96258.98
2018-11-06T05:21:09.077Z,96250.39
2018-11-06T05:22:45.124Z,96243.53
2018-11-06T05:24:20.899Z,96247.91
2018-11-06T05:25:56.934Z,96251.92
2018-11-06T05:27:32.234Z,96252.68
2018-11-06T05:29:07.677Z,96253.77
2018-11-06T05:30:42.844Z,96251.66
2018-11-06T05:32:18.417Z,96252.58
2018-11-06T05:33:53.684Z,96249.90
2018-11-06T05:35:28.771Z,96239.19
2018-11-06T05:37:04.155Z,96239.58
2018-11-06T05:38:39.792Z,96242.47
2018-11-06T05:40:25.888Z,96238.69
2018-11-06T05:42:01.206Z,96240.60
2018-11-06T05:43:38.178Z,96242.89
2018-11-06T05:45:20.813Z,96244.25
2018-11-06T05:46:58.030Z,96243.98
2018-11-06T05:48:34.550Z,96247.13
2018-11-06T05:50:09.666Z,96238.90
2018-11-06T05:51:45.940Z,96230.33
2018-11-06T05:53:21.503Z,96234.22
2018-11-06T05:54:56.673Z,96223.14
2018-11-06T05:56:31.903Z,96227.03
2018-11-06T05:58:07.975Z,96219.06
2018-11-06T05:59:44.160Z,96221.59
2018-11-06T06:01:19.531Z,96211.27
2018-11-06T06:02:54.690Z,96210.56
2018-11-06T06:04:33.518Z,96209.21
2018-11-06T06:06:10.792Z,96210.42
2018-11-06T06:07:46.826Z,96204.70
2018-11-06T06:09:24.061Z,96208.95
2018-11-06T06:10:59.576Z,96208.52
2018-11-06T06:12:36.649Z,96210.64
2018-11-06T06:14:13.469Z,96202.89
2018-11-06T06:15:52.801Z,96208.50
2018-11-06T06:17:29.672Z,96205.65
2018-11-06T06:19:07.375Z,96194.70
2018-11-06T06:20:46.162Z,96198.80
2018-11-06T06:22:23.099Z,96197.91
2018-11-06T06:24:00.533Z,96201.70
2018-11-06T06:25:38.591Z,96208.67
2018-11-06T06:27:22.316Z,96206.09
2018-11-06T06:28:58.317Z,96214.88
2018-11-06T06:30:35.152Z,96212.00
2018-11-06T06:32:11.060Z,96217.62
2018-11-06T06:33:51.529Z,96219.87
2018-11-06T06:35:28.978Z,96228.07
2018-11-06T06:37:05.823Z,96232.61
2018-11-06T06:38:41.262Z,96230.34
2018-11-06T06:40:17.618Z,96241.09
2018-11-06T06:42:00.085Z,96250.48
2018-11-06T06:43:38.836Z,96258.41
2018-11-06T06:45:19.055Z,96264.64
2018-11-06T06:46:54.150Z,96263.52
2018-11-06T06:48:29.863Z,96267.17
2018-11-06T06:50:05.434Z,96268.72
2018-11-06T06:51:41.035Z,96283.88
2018-11-06T06:53:18.038Z,96290.72
2018-11-06T06:54:53.687Z,96294.83
2018-11-06T06:56:33.463Z,96297.06
2018-11-06T06:58:10.234Z,96308.59
2018-11-06T06:59:47.244Z,96312.53
2018-11-06T07:01:23.997Z,96323.59
2018-11-06T07:02:59.921Z,96331.00
2018-11-06T07:04:36.792Z,96344.23
2018-11-06T07:06:12.306Z,96349.86
2018-11-06T07:07:47.470Z,96366.44
2018-11-06T07:09:24.531Z,96378.76
2018-11-06T07:11:02.287Z,96386.06
2018-11-06T07:12:38.911Z,96396.10
2018-11-06T07:14:17.391Z,96416.45
2018-11-06T07:15:53.782Z,96436.99
2018-11-06T07:17:31.486Z,96455.83
2018-11-06T07:19:07.264Z,96483.52
2018-11-06T07:20:46.237Z,96510.77
2018-11-06T07:22:22.562Z,96547.13
2018-11-06T07:23:58.390Z,96598.12
2018-11-06T07:25:35.837Z,96645.16
2018-11-06T07:27:14.686Z,96692.97
2018-11-06T07:28:51.015Z,96743.02
2018-11-06T07:30:26.235Z,96798.73
2018-11-06T07:32:01.832Z,96839.33
2018-11-06T07:33:37.818Z,96895.92
2018-11-06T07:35:13.454Z,96947.68
2018-11-06T07:36:48.695Z,96996.06
2018-11-06T07:38:24.212Z,97056.88
2018-11-06T07:40:02.666Z,97097.79
2018-11-06T07:41:37.924Z,97130.28
2018-11-06T07:43:18.775Z,97138.23
2018-11-06T07:44:58.171Z,97120.16
2018-11-06T07:46:37.499Z,97061.03
2018-11-06T07:48:12.673Z,96963.34
2018-11-06T07:49:48.350Z,96834.25
2018-11-06T07:51:24.537Z,96773.67
2018-11-06T07:53:00.465Z,96757.83
2018-11-06T07:54:35.756Z,96719.77
2018-11-06T07:56:11.350Z,96747.16
2018-11-06T07:57:47.920Z,96679.67
2018-11-06T07:59:24.475Z,96584.14
2018-11-06T08:00:59.862Z,96510.37
2018-11-06T08:02:34.866Z,96481.28
2018-11-06T08:04:11.392Z,96445.59
2018-11-06T08:05:47.194Z,96417.97
2018-11-06T08:07:24.189Z,96405.77
2018-11-06T08:09:02.361Z,96387.01
2018-11-06T08:10:41.025Z,96348.87
2018-11-06T08:12:18.075Z,96356.60
2018-11-06T08:13:54.608Z,96326.50
2018-11-06T08:15:30.634Z,96318.00
2018-11-06T08:17:06.291Z,96314.58
2018-11-06T08:18:44.222Z,96273.50
2018-11-06T08:22:22.402Z,96269.88
2018-11-06T08:24:22.543Z,96272.77
2018-11-06T08:25:58.969Z,96278.20
2018-11-06T08:27:34.273Z,96276.08
2018-11-06T08:29:12.950Z,96255.31
2018-11-06T08:30:49.677Z,96253.45
2018-11-06T08:32:24.979Z,96236.59
2018-11-06T08:34:00.123Z,96230.41
2018-11-06T08:35:38.081Z,96225.02
2018-11-06T08:37:17.905Z,96219.08
2018-11-06T08:38:56.080Z,96220.31
2018-11-06T08:40:31.803Z,96203.17
2018-11-06T08:42:07.993Z,96181.02
2018-11-06T08:43:43.020Z,96189.28
2018-11-06T08:45:18.347Z,96175.88
2018-11-06T08:46:53.669Z,96169.86
2018-11-06T08:48:32.591Z,96172.81
2018-11-06T08:50:08.793Z,96155.40
2018-11-06T08:51:50.736Z,96148.05
2018-11-06T08:53:28.316Z,96154.06
2018-11-06T08:55:09.832Z,96139.88
2018-11-06T08:56:45.002Z,96149.04
2018-11-06T08:58:20.808Z,96138.59
2018-11-06T08:59:59.055Z,96138.59
2018-11-06T09:01:37.419Z,96133.22
2018-11-06T09:03:13.975Z,96145.13
2018-11-06T09:04:50.646Z,96140.73
2018-11-06T09:06:29.000Z,96152.91
2018-11-06T09:08:04.590Z,96154.02
2018-11-06T09:09:40.171Z,96133.75
2018-11-06T09:11:15.211Z,96136.86
2018-11-06T09:12:50.921Z,96131.58
2018-11-06T09:14:27.273Z,96145.13
2018-11-06T09:16:02.530Z,96142.98
2018-11-06T09:17:43.770Z,96139.22
2018-11-06T09:19:18.920Z,96139.73
2018-11-06T09:20:58.751Z,96140.11
2018-11-06T09:22:34.598Z,96125.22
2018-11-06T09:24:11.361Z,96134.53
2018-11-06T09:25:47.505Z,96119.61
2018-11-06T09:27:30.449Z,96118.53
2018-11-06T09:29:05.997Z,96114.40
2018-11-06T09:30:42.701Z,96123.72
2018-11-06T09:32:25.594Z,96107.53
2018-11-06T09:34:01.723Z,96113.34
2018-11-06T09:35:37.737Z,96111.09
2018-11-06T09:37:14.727Z,96102.06
2018-11-06T09:38:52.802Z,96106.07
2018-11-06T09:42:06.663Z,96092.64
2018-11-06T09:43:45.761Z,96097.80
2018-11-06T09:45:26.277Z,96099.30
2018-11-06T09:47:07.099Z,96093.17
2018-11-06T09:48:43.045Z,96089.76
2018-11-06T09:50:21.462Z,96084.64
2018-11-06T09:52:00.416Z,96078.61
2018-11-06T09:53:39.503Z,96095.41
2018-11-06T09:55:15.666Z,96086.48
2018-11-06T09:56:51.551Z,96092.50
2018-11-06T09:58:26.441Z,96089.12
2018-11-06T10:00:02.082Z,96094.50
2018-11-06T10:01:40.610Z,96076.94
2018-11-06T10:03:15.801Z,96079.73
2018-11-06T10:04:57.374Z,96080.09
2018-11-06T10:06:49.568Z,96078.34
2018-11-06T10:08:29.592Z,96076.34
2018-11-06T10:10:07.744Z,96072.83
2018-11-06T10:11:43.838Z,96074.44
2018-11-06T10:13:23.346Z,96081.86
2018-11-06T10:15:00.675Z,96074.83
2018-11-06T10:16:41.801Z,96071.22
2018-11-06T10:18:25.978Z,96077.34
2018-11-06T10:20:01.296Z,96079.74
2018-11-06T10:21:48.196Z,96086.89
2018-11-06T10:23:24.328Z,96078.49
2018-11-06T10:25:01.174Z,96079.61
2018-11-06T10:26:36.650Z,96074.35
2018-11-06T10:28:12.394Z,96084.16
2018-11-06T10:29:48.138Z,96091.31
2018-11-06T10:31:26.804Z,96091.55
2018-11-06T10:33:02.392Z,96092.93
2018-11-06T10:34:37.731Z,96095.81
2018-11-06T10:36:17.570Z,96097.33
2018-11-06T10:37:55.649Z,96097.55
2018-11-06T10:39:37.113Z,96101.20
2018-11-06T10:41:15.997Z,96097.69
2018-11-06T10:42:53.518Z,96093.31
2018-11-06T10:44:30.217Z,96092.92
2018-11-06T10:46:07.565Z,96092.60
2018-11-06T10:47:42.493Z,96092.34
2018-11-06T10:49:21.433Z,96088.45
2018-11-06T10:50:58.210Z,96096.38
2018-11-06T10:52:46.095Z,96090.95
2018-11-06T10:54:33.164Z,96078.66
2018-11-06T10:56:16.784Z,96085.45
2018-11-06T10:57:59.851Z,96076.16
2018-11-06T10:59:35.033Z,96080.67
2018-11-06T11:01:15.262Z,96087.95
2018-11-06T11:02:57.171Z,96087.34
2018-11-06T11:04:39.664Z,96083.70
2018-11-06T11:06:15.851Z,96081.83
2018-11-06T11:07:52.644Z,96078.55
2018-11-06T11:09:30.483Z,96086.22
2018-11-06T11:11:12.905Z,96080.69
2018-11-06T11:12:52.008Z,96086.45
2018-11-06T11:14:28.392Z,96072.91
2018-11-06T11:16:15.418Z,96087.08
2018-11-06T11:17:57.564Z,96079.55
2018-11-06T11:19:46.442Z,96070.88
2018-11-06T11:21:29.340Z,96072.40
2018-11-06T11:23:08.852Z,96070.87
2018-11-06T11:24:46.250Z,96070.12
2018-11-06T11:26:23.461Z,96068.36
2018-11-06T11:28:21.241Z,96067.23
2018-11-06T11:30:06.362Z,96058.42
2018-11-06T11:31:44.233Z,96058.05
2018-11-06T11:33:20.640Z,96059.17
2018-11-06T11:35:03.425Z,96049.76
2018-11-06T11:37:47.193Z,96052.23
2018-11-06T11:41:12.357Z,96059.77
2018-11-06T11:42:51.083Z,96048.00
2018-11-06T11:44:35.964Z,96045.48
2018-11-06T11:46:11.619Z,96049.09
2018-11-06T11:47:52.778Z,96050.85
2018-11-06T11:49:27.973Z,96049.09
2018-11-06T11:51:04.404Z,96047.30
2018-11-06T11:52:41.353Z,96045.16
2018-11-06T11:54:23.659Z,96045.91
2018-11-06T11:56:02.817Z,96042.02
2018-11-06T11:57:47.559Z,96038.89
2018-11-06T11:59:23.542Z,96047.17
2018-11-06T12:01:00.770Z,96041.39
2018-11-06T12:04:17.836Z,96041.14
2018-11-06T12:05:56.663Z,96035.78
2018-11-06T12:07:34.945Z,96038.55
2018-11-06T12:09:11.769Z,96033.02
2018-11-06T12:10:53.231Z,96039.64
2018-11-06T12:12:32.288Z,96027.88
2018-11-06T12:14:09.003Z,96030.02
2018-11-06T12:15:47.850Z,96041.56
2018-11-06T12:17:32.978Z,96046.74
2018-11-06T12:19:10.330Z,96045.61
2018-11-06T12:20:47.632Z,96043.45
2018-11-06T12:22:25.652Z,96042.95
2018-11-06T12:24:04.094Z,96033.78
2018-11-06T12:25:42.868Z,96030.52
2018-11-06T12:27:24.811Z,96026.88
2018-11-06T12:29:01.143Z,96015.73
2018-11-06T12:30:38.708Z,96018.08
2018-11-06T12:32:19.952Z,96019.09
2018-11-06T12:33:54.769Z,96012.17
2018-11-06T12:35:32.848Z,96006.47
2018-11-06T12:37:09.928Z,95996.68
2018-11-06T12:38:50.543Z,95999.55
2018-11-06T12:40:34.950Z,95990.77
2018-11-06T12:42:14.305Z,95991.16
2018-11-06T12:43:50.230Z,95988.56
2018-11-06T12:45:29.619Z,95980.91
2018-11-06T12:47:04.892Z,95989.48
2018-11-06T12:48:50.101Z,95990.49
2018-11-06T12:50:37.624Z,95993.13
2018-11-06T12:52:14.994Z,96001.42
2018-11-06T12:53:55.009Z,96003.67
2018-11-06T12:55:40.213Z,96003.05
2018-11-06T12:57:21.195Z,96011.96
2018-11-06T12:59:01.067Z,96004.56
2018-11-06T13:00:42.561Z,96001.29
2018-11-06T13:02:20.320Z,96000.50
2018-11-06T13:04:04.968Z,95996.73
2018-11-06T13:05:42.184Z,95991.70
2018-11-06T13:07:17.298Z,95990.06
2018-11-06T13:08:54.945Z,95991.53
2018-11-06T13:10:42.646Z,95995.30
2018-11-06T13:12:21.265Z,95986.38
2018-11-06T13:14:00.500Z,95985.00
2018-11-06T13:15:36.567Z,95979.59
2018-11-06T13:17:12.603Z,95974.58
2018-11-06T13:18:54.703Z,95977.21
2018-11-06T13:20:31.082Z,95979.48
2018-11-06T13:22:08.920Z,95976.34
2018-11-06T13:23:44.991Z,95970.55
2018-11-06T13:25:20.919Z,95965.91
2018-11-06T13:26:57.213Z,95967.66
2018-11-06T13:28:32.759Z,95961.00
2018-11-06T13:30:13.526Z,95960.00
2018-11-06T13:31:53.075Z,95956.61
2018-11-06T13:33:31.803Z,95957.48
2018-11-06T13:35:17.390Z,95953.09
2018-11-06T13:37:05.082Z,95951.84
2018-11-06T13:38:44.455Z,95953.09
2018-11-06T13:40:24.264Z,95960.39
2018-11-06T13:42:05.184Z,95948.99
2018-11-06T13:43:40.545Z,95949.21
2018-11-06T13:45:21.804Z,95949.21
2018-11-06T13:47:00.691Z,95943.47
2018-11-06T13:50:29.928Z,95938.95
2018-11-06T13:52:07.062Z,95939.20
2018-11-06T13:53:43.537Z,95934.81
2018-11-06T13:55:29.220Z,95939.58
2018-11-06T13:57:07.593Z,95934.56
2018-11-06T13:58:45.799Z,95928.04
2018-11-06T14:00:21.912Z,95923.89
2018-11-06T14:01:59.425Z,95918.73
2018-11-06T14:03:37.266Z,95924.65
2018-11-06T14:05:23.334Z,95929.16
2018-11-06T14:06:58.560Z,95923.52
2018-11-06T14:08:34.123Z,95925.14
2018-11-06T14:10:10.789Z,95929.16
2018-11-06T14:11:46.254Z,95925.64
2018-11-06T14:13:22.576Z,95925.02
2018-11-06T14:15:09.837Z,95923.64
2018-11-06T14:16:48.415Z,95916.61
2018-11-06T14:18:26.750Z,95926.66
2018-11-06T14:20:04.055Z,95929.80
2018-11-06T14:21:46.039Z,95934.11
2018-11-06T14:23:27.331Z,95932.36
2018-11-06T14:25:15.299Z,95936.02
2018-11-06T14:26:55.225Z,95931.28
2018-11-06T14:28:45.466Z,95937.56
2018-11-06T14:30:31.981Z,95941.08
2018-11-06T14:32:16.619Z,95933.84
2018-11-06T14:33:58.850Z,95937.10
2018-11-06T14:35:37.454Z,95933.47
2018-11-06T14:37:20.031Z,95938.52
2018-11-06T14:39:00.318Z,95937.14
2018-11-06T14:40:41.051Z,95931.12
2018-11-06T14:42:20.519Z,95936.77
2018-11-06T14:43:59.709Z,95942.81
2018-11-06T14:47:09.441Z,95936.52
2018-11-06T14:48:47.753Z,95938.42
2018-11-06T14:50:27.994Z,95935.41
2018-11-06T14:52:32.851Z,95943.56
2018-11-06T14:54:09.547Z,95940.45
2018-11-06T14:55:47.580Z,95945.47
2018-11-06T14:57:28.719Z,95947.00
2018-11-06T14:59:04.578Z,95954.87
2018-11-06T15:00:52.484Z,95954.13
2018-11-06T15:02:37.774Z,95953.48
2018-11-06T15:04:16.620Z,95959.64
2018-11-06T15:06:08.482Z,95950.24
2018-11-06T15:09:43.011Z,95956.36
2018-11-06T15:11:19.228Z,95953.09
2018-11-06T15:12:54.748Z,95951.33
2018-11-06T15:14:39.920Z,95956.98
2018-11-06T15:16:24.518Z,95957.34
2018-11-06T15:18:02.215Z,95959.45
2018-11-06T15:19:37.739Z,95958.80
2018-11-06T15:21:12.584Z,95957.03
2018-11-06T15:22:49.698Z,95959.34
2018-11-06T15:24:26.532Z,95964.09
2018-11-06T15:26:05.487Z,95961.08
2018-11-06T15:27:41.334Z,95965.92
2018-11-06T15:29:17.406Z,95962.55
2018-11-06T15:30:55.733Z,95967.42
2018-11-06T15:32:31.624Z,95970.81
2018-11-06T15:34:10.604Z,95959.13
2018-11-06T15:35:50.277Z,95962.89
2018-11-06T15:37:26.877Z,95965.61
2018-11-06T15:39:02.951Z,95968.27
2018-11-06T15:40:38.283Z,95967.52
2018-11-06T15:42:17.249Z,95962.64
2018-11-06T15:43:53.434Z,95958.77
2018-11-06T15:45:36.403Z,95953.13
2018-11-06T15:47:11.956Z,95954.83
2018-11-06T15:50:37.645Z,95952.67
2018-11-06T15:54:33.262Z,95943.45
2018-11-06T15:56:11.937Z,95945.59
2018-11-06T15:57:59.894Z,95945.05
2018-11-06T15:59:37.836Z,95936.53
2018-11-06T16:03:17.515Z,95944.78
2018-11-06T16:04:56.039Z,95945.84
2018-11-06T16:06:38.689Z,95943.71
2018-11-06T16:08:16.061Z,95943.63
2018-11-06T16:09:56.688Z,95939.00
2018-11-06T16:12:04.590Z,95944.61
2018-11-06T16:13:47.545Z,95936.83
2018-11-06T16:15:29.667Z,95944.07
2018-11-06T16:18:51.042Z,95935.89
2018-11-06T16:20:36.213Z,95932.52
2018-11-06T16:22:17.751Z,95935.14
2018-11-06T16:23:57.576Z,95939.11
2018-11-06T16:25:33.616Z,95939.13
2018-11-06T16:27:09.370Z,95937.98
2018-11-06T16:28:46.584Z,95943.66
2018-11-06T16:30:23.464Z,95936.91
2018-11-06T16:32:02.379Z,95935.41
2018-11-06T16:33:38.864Z,95937.98
2018-11-06T16:35:17.490Z,95936.83
2018-11-06T16:36:52.795Z,95940.19
2018-11-06T16:38:32.714Z,95946.61
2018-11-06T16:40:08.705Z,95952.42
2018-11-06T16:41:44.255Z,95944.41
2018-11-06T16:43:19.863Z,95952.19
2018-11-06T16:44:56.076Z,95954.80
2018-11-06T16:46:37.490Z,95956.09
2018-11-06T16:48:14.061Z,95966.90
2018-11-06T16:49:53.497Z,95974.53
2018-11-06T16:51:30.079Z,95973.11
2018-11-06T16:53:07.693Z,95984.75
2018-11-06T16:54:44.770Z,95989.08
2018-11-06T16:56:22.120Z,95987.47
2018-11-06T16:58:10.324Z,95985.10
2018-11-06T16:59:49.403Z,95986.84
2018-11-06T17:01:36.471Z,95998.66
2018-11-06T17:03:16.226Z,95995.46
2018-11-06T17:04:57.489Z,95994.22
2018-11-06T17:06:39.000Z,95997.25
2018-11-06T17:08:16.202Z,95991.20
2018-11-06T17:09:56.593Z,95989.94
2018-11-06T17:11:33.835Z,95986.98
2018-11-06T17:13:15.019Z,95988.46
2018-11-06T17:14:54.381Z,95990.66
2018-11-06T17:16:34.171Z,95994.61
2018-11-06T17:18:11.264Z,95991.83
2018-11-06T17:19:48.562Z,95990.63
2018-11-06T17:21:26.817Z,95993.89
2018-11-06T17:23:03.948Z,95996.70
2018-11-06T17:24:47.297Z,95998.18
2018-11-06T17:26:30.309Z,96004.16
2018-11-06T17:28:09.204Z,96012.44
2018-11-06T17:29:52.116Z,96029.47
2018-11-06T17:31:30.813Z,96045.78
2018-11-06T17:33:08.702Z,96049.75
2018-11-06T17:34:44.762Z,96064.22
2018-11-06T17:36:22.489Z,96062.23
2018-11-06T17:37:58.501Z,96067.91
2018-11-06T17:39:35.739Z,96076.08
2018-11-06T17:43:26.717Z,96084.69
2018-11-06T17:45:04.925Z,96088.96
2018-11-06T17:46:44.710Z,96090.08
2018-11-06T17:48:22.895Z,96093.58
2018-11-06T17:50:03.324Z,96093.95
2018-11-06T17:51:39.327Z,96101.24
2018-11-06T17:53:15.419Z,96106.73
2018-11-06T17:54:56.215Z,96106.21
2018-11-06T17:56:45.143Z,96112.73
2018-11-06T17:58:22.755Z,96119.27
2018-11-06T18:00:09.322Z,96127.86
2018-11-06T18:01:54.503Z,96142.56
2018-11-06T18:03:33.316Z,96148.02
2018-11-06T18:05:09.570Z,96153.20
2018-11-06T18:06:48.787Z,96162.96
2018-11-06T18:08:29.424Z,96169.07
2018-11-06T18:10:06.114Z,96173.28
2018-11-06T18:11:48.770Z,96174.13
2018-11-06T18:13:33.536Z,96168.17
2018-11-06T18:15:15.293Z,96170.09
2018-11-06T18:16:54.240Z,96172.13
2018-11-06T18:18:32.145Z,96178.56
2018-11-06T18:20:09.955Z,96186.24
2018-11-06T18:21:51.305Z,96187.59
2018-11-06T18:23:26.932Z,96175.95
2018-11-06T18:25:08.419Z,96181.89
2018-11-06T18:26:44.681Z,96187.05
2018-11-06T18:28:20.285Z,96188.13
2018-11-06T18:30:00.020Z,96195.48
2018-11-06T18:31:38.618Z,96202.36
2018-11-06T18:33:16.981Z,96197.10
2018-11-06T18:34:54.070Z,96208.39
2018-11-06T18:36:30.060Z,96204.86
2018-11-06T18:38:10.267Z,96210.66
2018-11-06T18:39:48.640Z,96214.61
2018-11-06T18:41:27.890Z,96222.44
2018-11-06T18:43:05.454Z,96215.52
2018-11-06T18:44:44.259Z,96221.06
2018-11-06T18:46:20.089Z,96228.69
2018-11-06T18:48:15.749Z,96227.47
2018-11-06T18:50:03.350Z,96238.34
2018-11-06T18:51:43.957Z,96242.91
2018-11-06T18:53:26.758Z,96247.46
2018-11-06T18:55:13.788Z,96248.30
2018-11-06T18:58:57.860Z,96259.00
2018-11-06T19:00:53.069Z,96269.84
2018-11-06T19:04:47.486Z,96283.69
2018-11-06T19:06:24.845Z,96290.23
2018-11-06T19:09:49.600Z,96295.25
2018-11-06T19:13:17.883Z,96295.09
2018-11-06T19:16:59.517Z,96287.22
2018-11-06T19:18:37.856Z,96291.78
2018-11-06T19:20:18.803Z,96304.40
2018-11-06T19:22:03.156Z,96304.73
2018-11-06T19:23:45.137Z,96310.51
2018-11-06T19:27:07.414Z,96327.95
2018-11-06T19:28:54.579Z,96321.75
2018-11-06T19:30:38.215Z,96334.22
2018-11-06T19:32:26.688Z,96336.94
2018-11-06T19:34:09.138Z,96336.79
2018-11-06T19:35:47.376Z,96346.97
2018-11-06T19:37:25.731Z,96346.81
2018-11-06T19:39:01.243Z,96353.36
2018-11-06T19:40:44.066Z,96350.33
2018-11-06T19:42:23.052Z,96352.11
2018-11-06T19:44:00.719Z,96354.84
2018-11-06T19:45:41.328Z,96358.06
2018-11-06T19:47:24.190Z,96356.84
2018-11-06T19:49:16.857Z,96363.97
2018-11-06T19:50:55.231Z,96366.42
2018-11-06T19:52:55.895Z,96372.03
2018-11-06T19:54:36.134Z,96365.36